createdAt,value
2024-05-09T00:00:45.060Z,12.97
2024-05-09T00:03:32.893Z,12.96
2024-05-09T00:06:00.842Z,12.88
2024-05-09T00:08:29.048Z,12.81
2024-05-09T00:10:56.998Z,12.80
2024-05-09T00:13:24.817Z,12.77
2024-05-09T00:15:52.602Z,12.76
2024-05-09T00:18:20.699Z,12.72
2024-05-09T00:20:48.523Z,12.76
2024-05-09T00:23:16.399Z,12.76
2024-05-09T00:25:44.790Z,12.76
2024-05-09T00:28:12.911Z,12.77
2024-05-09T00:30:41.281Z,12.78
2024-05-09T00:33:10.824Z,12.77
2024-05-09T00:35:39.916Z,12.78
2024-05-09T00:38:08.150Z,12.79
2024-05-09T00:40:40.459Z,12.87
2024-05-09T00:43:14.733Z,12.89
2024-05-09T00:45:44.109Z,12.88
2024-05-09T00:48:17.255Z,12.89
2024-05-09T00:50:48.045Z,12.89
2024-05-09T00:53:18.136Z,12.87
2024-05-09T00:55:47.447Z,12.87
2024-05-09T00:58:18.195Z,12.88
2024-05-09T01:00:46.677Z,12.93
2024-05-09T01:03:14.851Z,12.93
2024-05-09T01:05:44.060Z,12.92
2024-05-09T01:08:13.122Z,12.89
2024-05-09T01:10:44.853Z,12.84
2024-05-09T01:13:14.290Z,12.77
2024-05-09T01:15:42.990Z,12.73
2024-05-09T01:18:12.647Z,12.71
2024-05-09T01:20:44.326Z,12.77
2024-05-09T01:23:15.432Z,12.78
2024-05-09T01:25:46.142Z,12.76
2024-05-09T01:28:15.091Z,12.73
2024-05-09T01:30:43.412Z,12.72
2024-05-09T01:33:12.435Z,12.70
2024-05-09T01:35:42.322Z,12.67
2024-05-09T01:38:17.026Z,12.67
2024-05-09T01:40:44.990Z,12.74
2024-05-09T01:43:12.743Z,12.76
2024-05-09T01:45:41.472Z,12.74
2024-05-09T01:48:10.557Z,12.73
2024-05-09T01:50:41.933Z,12.73
2024-05-09T01:53:13.354Z,12.70
2024-05-09T01:55:42.131Z,12.65
2024-05-09T01:58:10.163Z,12.62
2024-05-09T02:00:42.200Z,12.63
2024-05-09T02:03:15.508Z,12.63
2024-05-09T02:05:47.696Z,12.59
2024-05-09T02:08:19.182Z,12.55
2024-05-09T02:10:49.029Z,12.52
2024-05-09T02:13:17.302Z,12.50
2024-05-09T02:15:45.216Z,12.48
2024-05-09T02:18:13.722Z,12.48
2024-05-09T02:20:42.796Z,12.53
2024-05-09T02:23:11.851Z,12.54
2024-05-09T02:25:41.094Z,12.56
2024-05-09T02:28:09.317Z,12.55
2024-05-09T02:30:40.684Z,12.54
2024-05-09T02:33:12.250Z,12.52
2024-05-09T02:35:43.636Z,12.53
2024-05-09T02:38:12.625Z,12.52
2024-05-09T02:40:40.935Z,12.57
2024-05-09T02:43:12.536Z,12.57
2024-05-09T02:45:41.052Z,12.54
2024-05-09T02:48:13.198Z,12.52
2024-05-09T02:50:43.987Z,12.49
2024-05-09T02:53:12.793Z,12.45
2024-05-09T02:55:41.795Z,12.44
2024-05-09T02:58:10.516Z,12.50
2024-05-09T03:00:41.685Z,12.50
2024-05-09T03:03:13.474Z,12.49
2024-05-09T03:05:44.825Z,12.47
2024-05-09T03:08:13.271Z,12.46
2024-05-09T03:10:41.215Z,12.45
2024-05-09T03:13:14.743Z,12.43
2024-05-09T03:15:44.935Z,12.48
2024-05-09T03:18:13.445Z,12.45
2024-05-09T03:20:43.845Z,12.42
2024-05-09T03:23:11.992Z,12.40
2024-05-09T03:25:39.818Z,12.40
2024-05-09T03:28:07.702Z,12.39
2024-05-09T03:30:40.917Z,12.43
2024-05-09T03:33:19.128Z,12.50
2024-05-09T03:35:49.188Z,12.51
2024-05-09T03:38:17.506Z,12.51
2024-05-09T03:40:50.609Z,12.51
2024-05-09T03:43:19.554Z,12.52
2024-05-09T03:45:49.158Z,12.51
2024-05-09T03:48:17.356Z,12.55
2024-05-09T03:50:45.699Z,12.66
2024-05-09T03:53:14.423Z,12.71
2024-05-09T03:55:42.461Z,12.74
2024-05-09T03:58:12.696Z,12.77
2024-05-09T04:00:41.932Z,12.77
2024-05-09T04:03:12.061Z,12.73
2024-05-09T04:05:42.704Z,12.73
2024-05-09T04:08:11.724Z,12.79
2024-05-09T04:10:40.793Z,12.82
2024-05-09T04:13:09.974Z,12.85
2024-05-09T04:15:37.807Z,12.88
2024-05-09T04:18:05.684Z,12.92
2024-05-09T04:20:38.711Z,12.99
2024-05-09T04:23:13.821Z,13.10
2024-05-09T04:25:44.978Z,13.27
2024-05-09T04:28:14.203Z,13.41
2024-05-09T04:30:42.856Z,13.51
2024-05-09T04:33:13.341Z,13.59
2024-05-09T04:35:43.705Z,13.69
2024-05-09T04:38:13.252Z,13.80
2024-05-09T04:40:41.406Z,13.87
2024-05-09T04:43:18.455Z,13.97
2024-05-09T04:45:46.750Z,14.12
2024-05-09T04:48:14.873Z,14.20
2024-05-09T04:50:43.011Z,14.25
2024-05-09T04:53:16.066Z,14.31
2024-05-09T04:55:44.153Z,14.34
2024-05-09T04:58:12.291Z,14.38
2024-05-09T05:00:41.152Z,14.40
2024-05-09T05:03:14.044Z,14.43
2024-05-09T05:05:45.450Z,14.46
2024-05-09T05:08:15.487Z,14.48
2024-05-09T05:10:44.145Z,14.57
2024-05-09T05:13:25.095Z,14.61
2024-05-09T05:15:56.807Z,14.64
2024-05-09T05:18:27.404Z,14.66
2024-05-09T05:20:56.477Z,14.67
2024-05-09T05:23:24.884Z,14.70
2024-05-09T05:25:53.568Z,14.72
2024-05-09T05:28:22.124Z,14.75
2024-05-09T05:30:50.393Z,14.80
2024-05-09T05:33:19.292Z,14.86
2024-05-09T05:35:47.832Z,14.96
2024-05-09T05:38:15.848Z,15.16
2024-05-09T05:40:43.661Z,15.33
2024-05-09T05:43:18.464Z,15.47
2024-05-09T05:45:46.808Z,15.61
2024-05-09T05:48:17.554Z,15.77
2024-05-09T05:50:46.025Z,15.93
2024-05-09T05:53:14.081Z,16.08
2024-05-09T05:55:42.180Z,16.18
2024-05-09T05:58:11.036Z,16.29
2024-05-09T06:00:41.028Z,16.39
2024-05-09T06:03:10.528Z,16.45
2024-05-09T06:05:48.199Z,16.50
2024-05-09T06:08:16.217Z,16.56
2024-05-09T06:10:44.088Z,16.64
2024-05-09T06:13:13.640Z,16.69
2024-05-09T06:15:42.597Z,16.69
2024-05-09T06:18:12.318Z,16.70
2024-05-09T06:20:41.921Z,16.70
2024-05-09T06:23:11.388Z,16.71
2024-05-09T06:25:39.368Z,16.76
2024-05-09T06:28:07.274Z,16.72
2024-05-09T06:30:41.925Z,16.70
2024-05-09T06:33:13.901Z,16.77
2024-05-09T06:35:44.727Z,16.88
2024-05-09T06:38:12.894Z,17.02
2024-05-09T06:40:43.073Z,17.17
2024-05-09T06:43:17.733Z,17.29
2024-05-09T06:45:48.700Z,17.37
2024-05-09T06:48:20.964Z,17.42
2024-05-09T06:50:49.664Z,17.53
2024-05-09T06:53:21.602Z,17.66
2024-05-09T06:55:49.986Z,17.77
2024-05-09T06:58:17.854Z,17.87
2024-05-09T07:00:45.641Z,18.01
2024-05-09T07:03:17.169Z,18.22
2024-05-09T07:05:48.179Z,18.52
2024-05-09T07:08:17.800Z,18.77
2024-05-09T07:10:45.875Z,18.92
2024-05-09T07:13:15.110Z,18.89
2024-05-09T07:15:43.772Z,18.77
2024-05-09T07:18:13.682Z,18.63
2024-05-09T07:20:42.192Z,18.58
2024-05-09T07:23:11.018Z,18.55
2024-05-09T07:25:40.367Z,18.50
2024-05-09T07:28:15.917Z,18.62
2024-05-09T07:30:44.574Z,18.79
2024-05-09T07:33:17.126Z,18.90
2024-05-09T07:35:45.319Z,18.93
2024-05-09T07:38:13.295Z,18.92
2024-05-09T07:40:41.662Z,18.96
2024-05-09T07:43:16.424Z,19.05
2024-05-09T07:45:52.092Z,19.24
2024-05-09T07:52:38.841Z,19.63
2024-05-09T07:53:47.883Z,19.77
2024-05-09T07:56:21.745Z,19.74
2024-05-09T07:58:52.454Z,19.73
2024-05-09T08:01:21.048Z,19.72
2024-05-09T08:03:49.361Z,19.77
2024-05-09T08:06:17.540Z,19.81
2024-05-09T08:08:48.335Z,19.94
2024-05-09T08:11:16.313Z,20.15
2024-05-09T08:13:44.146Z,20.28
2024-05-09T08:16:13.673Z,20.35
2024-05-09T08:18:41.692Z,20.40
2024-05-09T08:21:09.518Z,20.40
2024-05-09T08:23:37.274Z,20.24
2024-05-09T08:26:05.675Z,20.11
2024-05-09T08:28:33.458Z,20.03
2024-05-09T08:31:04.069Z,19.82
2024-05-09T08:33:34.172Z,19.66
2024-05-09T08:36:01.980Z,19.52
2024-05-09T08:38:29.968Z,19.43
2024-05-09T08:40:57.711Z,19.38
2024-05-09T08:43:26.586Z,19.37
2024-05-09T08:45:54.404Z,19.35
2024-05-09T08:48:24.127Z,19.33
2024-05-09T08:50:53.224Z,19.32
2024-05-09T08:53:21.243Z,19.35
2024-05-09T08:55:51.036Z,19.43
2024-05-09T08:58:19.561Z,19.63
2024-05-09T09:00:48.231Z,19.85
2024-05-09T09:03:18.976Z,20.10
2024-05-09T09:06:10.422Z,20.32
2024-05-09T09:08:39.159Z,20.52
2024-05-09T09:11:07.239Z,20.51
2024-05-09T09:13:35.008Z,20.39
2024-05-09T09:16:03.535Z,20.26
2024-05-09T09:18:32.780Z,20.22
2024-05-09T09:21:01.045Z,20.14
2024-05-09T09:23:29.823Z,20.22
2024-05-09T09:25:59.426Z,20.32
2024-05-09T09:28:27.301Z,20.41
2024-05-09T09:31:01.255Z,20.41
2024-05-09T09:33:32.956Z,20.37
2024-05-09T09:36:06.852Z,20.36
2024-05-09T09:38:40.330Z,20.42
2024-05-09T09:41:12.767Z,20.53
2024-05-09T09:43:42.579Z,20.69
2024-05-09T09:46:13.287Z,20.87
2024-05-09T09:48:42.662Z,20.97
2024-05-09T09:51:11.426Z,21.06
2024-05-09T09:53:40.096Z,21.25
2024-05-09T09:56:10.319Z,21.26
2024-05-09T09:58:40.095Z,21.17
2024-05-09T10:01:07.976Z,21.11
2024-05-09T10:03:36.165Z,21.07
2024-05-09T10:06:05.489Z,20.95
2024-05-09T10:08:35.246Z,20.85
2024-05-09T10:11:04.203Z,20.76
2024-05-09T10:13:35.403Z,20.65
2024-05-09T10:16:10.782Z,20.58
2024-05-09T10:18:40.759Z,20.61
2024-05-09T10:21:35.859Z,20.70
2024-05-09T10:24:04.016Z,20.85
2024-05-09T10:26:32.861Z,20.78
2024-05-09T10:29:03.318Z,20.65
2024-05-09T10:31:31.157Z,20.67
2024-05-09T10:34:00.390Z,20.69
2024-05-09T10:36:29.207Z,20.69
2024-05-09T10:38:57.191Z,20.63
2024-05-09T10:41:25.140Z,20.63
2024-05-09T10:43:52.986Z,20.68
2024-05-09T10:46:20.908Z,20.78
2024-05-09T10:48:49.442Z,20.93
2024-05-09T10:51:21.531Z,20.91
2024-05-09T10:53:49.378Z,20.85
2024-05-09T10:56:17.511Z,20.83
2024-05-09T10:58:45.391Z,20.75
2024-05-09T11:01:13.888Z,20.67
2024-05-09T11:03:42.423Z,20.70
2024-05-09T11:06:11.347Z,20.76
2024-05-09T11:08:39.392Z,20.80
2024-05-09T11:11:08.820Z,20.77
2024-05-09T11:13:39.502Z,20.86
2024-05-09T11:16:19.405Z,21.07
2024-05-09T11:18:56.157Z,21.20
2024-05-09T11:21:24.775Z,21.11
2024-05-09T11:23:52.988Z,20.94
2024-05-09T11:26:22.301Z,20.81
2024-05-09T11:28:50.757Z,20.80
2024-05-09T11:31:19.095Z,20.68
2024-05-09T11:33:47.344Z,20.53
2024-05-09T11:36:16.538Z,20.59
2024-05-09T11:38:44.367Z,20.73
2024-05-09T11:41:18.776Z,20.83
2024-05-09T11:43:46.800Z,20.93
2024-05-09T11:46:14.823Z,20.98
2024-05-09T11:48:43.195Z,20.99
2024-05-09T11:51:11.405Z,20.90
2024-05-09T11:53:39.451Z,20.88
2024-05-09T11:56:07.557Z,20.85
2024-05-09T11:58:36.948Z,20.78
2024-05-09T12:01:05.253Z,20.79
2024-05-09T12:03:35.085Z,20.86
2024-05-09T12:06:04.035Z,20.95
2024-05-09T12:08:31.909Z,20.98
2024-05-09T12:10:59.921Z,20.83
2024-05-09T12:13:28.171Z,20.72
2024-05-09T12:15:56.487Z,20.68
2024-05-09T12:18:24.633Z,20.66
2024-05-09T12:20:52.392Z,20.61
2024-05-09T12:23:20.078Z,20.61
2024-05-09T12:25:48.100Z,20.71
2024-05-09T12:28:16.044Z,20.82
2024-05-09T12:30:43.954Z,20.84
2024-05-09T12:33:13.275Z,20.76
2024-05-09T12:35:44.504Z,20.68
2024-05-09T12:38:15.384Z,20.56
2024-05-09T12:40:43.485Z,20.42
2024-05-09T12:43:11.949Z,20.32
2024-05-09T12:45:40.560Z,20.28
2024-05-09T12:48:11.915Z,20.24
2024-05-09T12:50:40.871Z,20.21
2024-05-09T12:53:08.916Z,20.15
2024-05-09T12:55:44.205Z,20.13
2024-05-09T12:58:21.929Z,20.12
2024-05-09T13:00:52.297Z,20.18
2024-05-09T13:03:21.428Z,20.25
2024-05-09T13:05:50.718Z,20.25
2024-05-09T13:08:19.510Z,20.20
2024-05-09T13:10:48.108Z,20.12
2024-05-09T13:13:16.017Z,20.06
2024-05-09T13:15:43.878Z,20.04
2024-05-09T13:18:11.834Z,20.00
2024-05-09T13:20:39.593Z,20.00
2024-05-09T13:23:08.343Z,20.01
2024-05-09T13:25:37.879Z,20.04
2024-05-09T13:28:07.901Z,20.06
2024-05-09T13:30:40.499Z,20.08
2024-05-09T13:33:12.059Z,20.02
2024-05-09T13:35:45.757Z,19.87
2024-05-09T13:38:21.098Z,19.73
2024-05-09T13:40:50.436Z,19.60
2024-05-09T13:43:19.155Z,19.52
2024-05-09T13:45:47.781Z,19.53
2024-05-09T13:48:15.778Z,19.53
2024-05-09T13:50:43.794Z,19.50
2024-05-09T13:53:11.822Z,19.47
2024-05-09T13:55:40.420Z,19.45
2024-05-09T13:58:09.435Z,19.48
2024-05-09T14:00:45.157Z,19.56
2024-05-09T14:03:19.103Z,19.64
2024-05-09T14:05:50.562Z,19.68
2024-05-09T14:08:19.946Z,19.74
2024-05-09T14:10:51.062Z,19.78
2024-05-09T14:13:19.650Z,19.75
2024-05-09T14:15:47.802Z,19.70
2024-05-09T14:18:15.728Z,19.68
2024-05-09T14:20:43.621Z,19.65
2024-05-09T14:23:11.507Z,19.64
2024-05-09T14:25:42.685Z,19.63
2024-05-09T14:28:13.196Z,19.62
2024-05-09T14:30:42.604Z,19.60
2024-05-09T14:33:11.396Z,19.62
2024-05-09T14:35:39.575Z,19.63
2024-05-09T14:38:08.809Z,19.64
2024-05-09T14:40:42.252Z,19.66
2024-05-09T14:43:13.394Z,19.70
2024-05-09T14:45:41.992Z,19.78
2024-05-09T14:48:10.751Z,19.85
2024-05-09T14:50:40.413Z,19.87
2024-05-09T14:53:10.840Z,19.92
2024-05-09T14:55:41.333Z,19.92
2024-05-09T14:58:11.425Z,19.86
2024-05-09T15:00:47.929Z,19.77
2024-05-09T15:03:19.815Z,19.71
2024-05-09T15:05:48.841Z,19.66
2024-05-09T15:08:18.212Z,19.64
2024-05-09T15:10:46.569Z,19.59
2024-05-09T15:13:16.710Z,19.49
2024-05-09T15:15:45.358Z,19.43
2024-05-09T15:18:14.887Z,19.43
2024-05-09T15:20:44.656Z,19.43
2024-05-09T15:23:12.604Z,19.42
2024-05-09T15:25:40.587Z,19.37
2024-05-09T15:28:08.792Z,19.36
2024-05-09T15:30:37.356Z,19.39
2024-05-09T15:33:07.121Z,19.41
2024-05-09T15:35:36.212Z,19.43
2024-05-09T15:38:04.751Z,19.43
2024-05-09T15:40:39.489Z,19.37
2024-05-09T15:43:10.996Z,19.33
2024-05-09T15:45:57.962Z,19.33
2024-05-09T15:48:26.588Z,19.34
2024-05-09T15:50:54.533Z,19.36
2024-05-09T15:53:22.355Z,19.37
2024-05-09T15:55:50.253Z,19.40
2024-05-09T15:58:18.646Z,19.42
2024-05-09T16:00:48.729Z,19.43
2024-05-09T16:03:19.516Z,19.46
2024-05-09T16:05:48.009Z,19.47
2024-05-09T16:08:16.397Z,19.49
2024-05-09T16:10:47.822Z,19.47
2024-05-09T16:13:16.907Z,19.45
2024-05-09T16:15:46.136Z,19.44
2024-05-09T16:18:14.225Z,19.43
2024-05-09T16:20:44.108Z,19.42
2024-05-09T16:23:13.470Z,19.40
2024-05-09T16:25:46.076Z,19.37
2024-05-09T16:28:14.280Z,19.33
2024-05-09T16:30:42.235Z,19.30
2024-05-09T16:33:13.496Z,19.27
2024-05-09T16:35:41.413Z,19.23
2024-05-09T16:38:09.376Z,19.18
2024-05-09T16:40:40.352Z,19.12
2024-05-09T16:43:10.739Z,19.07
2024-05-09T16:45:40.606Z,18.98
2024-05-09T16:48:09.229Z,18.88
2024-05-09T16:50:37.566Z,18.82
2024-05-09T16:53:06.669Z,18.73
2024-05-09T16:55:36.113Z,18.65
2024-05-09T16:58:06.493Z,18.57
2024-05-09T17:00:40.806Z,18.48
2024-05-09T17:03:14.856Z,18.37
2024-05-09T17:05:46.694Z,18.27
2024-05-09T17:08:18.049Z,18.17
2024-05-09T17:10:48.324Z,18.10
2024-05-09T17:13:16.596Z,18.02
2024-05-09T17:15:44.519Z,17.95
2024-05-09T17:18:12.615Z,17.86
2024-05-09T17:20:40.414Z,17.77
2024-05-09T17:23:13.588Z,17.68
2024-05-09T17:25:42.648Z,17.58
2024-05-09T17:28:11.470Z,17.49
2024-05-09T17:30:41.590Z,17.40
2024-05-09T17:33:11.401Z,17.32
2024-05-09T17:35:40.529Z,17.22
2024-05-09T17:38:08.674Z,17.12
2024-05-09T17:40:38.375Z,17.04
2024-05-09T17:43:09.431Z,16.95
2024-05-09T17:45:40.186Z,16.84
2024-05-09T17:48:10.252Z,16.75
2024-05-09T17:50:39.927Z,16.66
2024-05-09T17:53:08.568Z,16.58
2024-05-09T17:55:36.827Z,16.51
2024-05-09T17:58:05.874Z,16.44
2024-05-09T18:00:39.047Z,16.38
2024-05-09T18:03:13.900Z,16.31
2024-05-09T18:05:44.768Z,16.23
2024-05-09T18:08:13.711Z,16.16
2024-05-09T18:10:42.177Z,16.09
2024-05-09T18:13:11.982Z,16.03
2024-05-09T18:15:40.902Z,15.96
2024-05-09T18:18:10.348Z,15.90
2024-05-09T18:20:43.759Z,15.84
2024-05-09T18:23:16.412Z,15.78
2024-05-09T18:25:46.089Z,15.73
2024-05-09T18:28:14.835Z,15.66
2024-05-09T18:30:42.969Z,15.60
2024-05-09T18:33:11.641Z,15.55
2024-05-09T18:35:44.232Z,15.50
2024-05-09T18:38:12.238Z,15.45
2024-05-09T18:40:42.043Z,15.40
2024-05-09T18:43:11.686Z,15.35
2024-05-09T18:45:39.974Z,15.31
2024-05-09T18:48:09.578Z,15.23
2024-05-09T18:50:40.236Z,15.16
2024-05-09T18:53:11.727Z,15.07
2024-05-09T18:55:43.324Z,14.99
2024-05-09T18:58:11.648Z,14.91
2024-05-09T19:00:41.795Z,14.83
2024-05-09T19:03:13.995Z,14.76
2024-05-09T19:05:44.267Z,14.69
2024-05-09T19:08:14.801Z,14.61
2024-05-09T19:10:43.284Z,14.56
2024-05-09T19:13:13.377Z,14.50
2024-05-09T19:15:43.536Z,14.45
2024-05-09T19:18:13.206Z,14.39
2024-05-09T19:20:42.107Z,14.33
2024-05-09T19:23:11.471Z,14.26
2024-05-09T19:25:39.351Z,14.21
2024-05-09T19:28:07.209Z,14.16
2024-05-09T19:30:40.264Z,14.10
2024-05-09T19:33:13.042Z,14.02
2024-05-09T19:35:42.669Z,13.99
2024-05-09T19:38:10.882Z,13.92
2024-05-09T19:40:38.729Z,13.86
2024-05-09T19:43:06.997Z,13.81
2024-05-09T19:45:35.987Z,13.76
2024-05-09T19:48:05.472Z,13.65
2024-05-09T19:50:41.412Z,13.54
2024-05-09T19:53:13.317Z,13.41
2024-05-09T19:55:41.912Z,13.26
2024-05-09T19:58:10.923Z,13.14
2024-05-09T20:00:41.744Z,13.05
2024-05-09T20:03:13.084Z,12.98
2024-05-09T20:05:46.499Z,12.91
2024-05-09T20:08:15.014Z,12.85
2024-05-09T20:10:43.051Z,12.81
2024-05-09T20:13:11.032Z,12.76
2024-05-09T20:15:39.674Z,12.71
2024-05-09T20:18:08.017Z,12.67
2024-05-09T20:20:40.095Z,12.61
2024-05-09T20:23:12.302Z,12.56
2024-05-09T20:25:40.821Z,12.51
2024-05-09T20:28:08.925Z,12.47
2024-05-09T20:30:37.023Z,12.44
2024-05-09T20:33:07.455Z,12.41
2024-05-09T20:35:36.726Z,12.40
2024-05-09T20:38:05.194Z,12.38
2024-05-09T20:40:37.272Z,12.34
2024-05-09T20:43:10.846Z,12.30
2024-05-09T20:45:40.046Z,12.27
2024-05-09T20:48:09.305Z,12.24
2024-05-09T20:50:40.720Z,12.22
2024-05-09T20:53:11.973Z,12.18
2024-05-09T20:55:40.875Z,12.16
2024-05-09T20:58:09.914Z,12.14
2024-05-09T21:00:42.093Z,12.11
2024-05-09T21:03:13.811Z,12.07
2024-05-09T21:05:42.808Z,12.02
2024-05-09T21:08:10.700Z,11.97
2024-05-09T21:10:38.800Z,11.93
2024-05-09T21:13:07.419Z,11.88
2024-05-09T21:15:35.891Z,11.82
2024-05-09T21:18:04.579Z,11.75
2024-05-09T21:20:34.428Z,11.67
2024-05-09T21:23:03.019Z,11.63
2024-05-09T21:25:31.569Z,11.68
2024-05-09T21:27:59.768Z,11.73
2024-05-09T21:30:37.770Z,11.75
2024-05-09T21:33:11.849Z,11.75
2024-05-09T21:35:42.556Z,11.70
2024-05-09T21:38:10.490Z,11.67
2024-05-09T21:40:38.881Z,11.64
2024-05-09T21:43:07.635Z,11.63
2024-05-09T21:45:36.679Z,11.63
2024-05-09T21:48:06.138Z,11.63
2024-05-09T21:50:40.140Z,11.63
2024-05-09T21:53:11.789Z,11.62
2024-05-09T21:55:40.173Z,11.60
2024-05-09T21:58:08.343Z,11.59
2024-05-09T22:00:39.333Z,11.57
2024-05-09T22:03:09.002Z,11.56
2024-05-09T22:05:39.028Z,11.53
2024-05-09T22:08:07.827Z,11.53
2024-05-09T22:10:36.883Z,11.50
2024-05-09T22:13:06.361Z,11.49
2024-05-09T22:15:37.066Z,11.48
2024-05-09T22:18:07.462Z,11.45
2024-05-09T22:20:38.511Z,11.39
2024-05-09T22:23:08.572Z,11.33
2024-05-09T22:25:38.529Z,11.27
2024-05-09T22:28:07.289Z,11.25
2024-05-09T22:30:38.580Z,11.22
2024-05-09T22:33:09.676Z,11.20
2024-05-09T22:35:40.265Z,11.19
2024-05-09T22:38:08.716Z,11.15
2024-05-09T22:40:46.387Z,11.10
2024-05-09T22:43:22.556Z,11.04
2024-05-09T22:45:55.492Z,11.00
2024-05-09T22:48:24.804Z,10.94
2024-05-09T22:50:53.504Z,10.89
2024-05-09T22:53:24.120Z,10.86
2024-05-09T22:55:51.968Z,10.83
2024-05-09T22:58:20.739Z,10.81
2024-05-09T23:00:49.068Z,10.77
2024-05-09T23:03:18.498Z,10.74
2024-05-09T23:05:47.254Z,10.74
2024-05-09T23:08:15.036Z,10.80
2024-05-09T23:10:43.053Z,10.81
2024-05-09T23:13:11.040Z,10.81
2024-05-09T23:15:39.046Z,10.76
2024-05-09T23:18:07.983Z,10.73
2024-05-09T23:20:39.040Z,10.72
2024-05-09T23:23:10.597Z,10.71
2024-05-09T23:25:43.310Z,10.69
2024-05-09T23:28:11.799Z,10.68
2024-05-09T23:30:41.261Z,10.65
2024-05-09T23:33:12.236Z,10.60
2024-05-09T23:35:44.599Z,10.55
2024-05-09T23:38:13.528Z,10.49
2024-05-09T23:40:42.747Z,10.44
2024-05-09T23:43:12.318Z,10.38
2024-05-09T23:45:41.513Z,10.33
2024-05-09T23:48:10.013Z,10.28
2024-05-09T23:50:39.539Z,10.24
2024-05-09T23:53:09.446Z,10.20
2024-05-09T23:55:38.402Z,10.16
2024-05-09T23:58:07.431Z,10.13
